ADDS METAR Data INFO
IDs: Format: Raw Decoded Include TAF

Data at: 2012 UTC 19 Oct 2017

KRKR 191955Z AUTO 18004KT 10SM CLR 25/10 A3014 RMK AO2
KRKR 191935Z AUTO 21004KT 10SM CLR 25/11 A3015 RMK AO2
KRKR 191915Z AUTO 20006KT 10SM CLR 25/11 A3015 RMK AO2
KRKR 191855Z AUTO 20004KT 10SM CLR 25/12 A3016 RMK AO2
KRKR 191835Z AUTO 22003KT 10SM CLR 25/12 A3017 RMK AO2
KRKR 191815Z AUTO 16003KT 10SM CLR 24/12 A3018 RMK AO2
KRKR 191755Z AUTO 00000KT 10SM CLR 23/12 A3019 RMK AO2
KRKR 191735Z AUTO 18004KT 10SM CLR 23/12 A3020 RMK AO2
KRKR 191715Z AUTO 21007KT 10SM CLR 22/12 A3021 RMK AO2
KRKR 191655Z AUTO 18004KT 10SM CLR 22/12 A3021 RMK AO2
KRKR 191635Z AUTO 18004KT 10SM CLR 21/12 A3021 RMK AO2
KRKR 191615Z AUTO 18003KT 3SM HZ CLR 21/12 A3022 RMK AO2
KRKR 191555Z AUTO 00000KT 10SM CLR 20/12 A3022 RMK AO2
KRKR 191535Z AUTO 00000KT 10SM CLR 18/12 A3022 RMK AO2
KRKR 191515Z AUTO 00000KT 10SM CLR 16/12 A3022 RMK AO2
KRKR 191455Z AUTO 00000KT 10SM CLR 14/11 A3023 RMK AO2
KRKR 191435Z AUTO 00000KT 10SM CLR 13/11 A3022 RMK AO2
KRKR 191415Z AUTO 00000KT 10SM CLR 12/11 A3022 RMK AO2
KRKR 191355Z AUTO 00000KT 10SM CLR 11/10 A3021 RMK AO2
KRKR 191335Z AUTO 00000KT 10SM CLR 10/08 A3020 RMK AO2
KRKR 191315Z AUTO 00000KT 10SM CLR 09/08 A3020 RMK AO2
KRKR 191255Z AUTO 00000KT 5SM BR CLR 07/07 A3019 RMK AO2
KRKR 191235Z AUTO 00000KT 7SM CLR 07/07 A3018 RMK AO2
KRKR 191215Z AUTO 00000KT 10SM CLR 07/07 A3018 RMK AO2
KRKR 191155Z AUTO 00000KT 10SM CLR 08/07 A3018 RMK AO2
KRKR 191135Z AUTO 00000KT 10SM CLR 08/07 A3018 RMK AO2
KRKR 191115Z AUTO 00000KT 10SM CLR 08/08 A3018 RMK AO2
KRKR 191055Z AUTO 00000KT 10SM CLR 08/08 A3017 RMK AO2
KRKR 191035Z AUTO 00000KT 10SM CLR 08/08 A3016 RMK AO2
KRKR 191015Z AUTO 00000KT 10SM CLR 08/08 A3016 RMK AO2
KRKR 190955Z AUTO 00000KT 7SM CLR 08/08 A3015 RMK AO2
KRKR 190935Z AUTO 00000KT 10SM CLR 09/08 A3015 RMK AO2
KRKR 190915Z AUTO 00000KT 10SM CLR 08/08 A3014 RMK AO2
KRKR 190855Z AUTO 00000KT 10SM CLR 08/08 A3014 RMK AO2
KRKR 190835Z AUTO 00000KT 10SM CLR 09/08 A3014 RMK AO2
KRKR 190815Z AUTO 00000KT 10SM CLR 09/08 A3013 RMK AO2
KRKR 190755Z AUTO 00000KT 10SM CLR 10/09 A3013 RMK AO2
KRKR 190735Z AUTO 00000KT 10SM CLR 10/08 A3013 RMK AO2
KRKR 190715Z AUTO 00000KT 10SM CLR 10/09 A3012 RMK AO2
KRKR 190655Z AUTO 00000KT 10SM CLR 10/09 A3012 RMK AO2
KRKR 190635Z AUTO 00000KT 10SM CLR 10/08 A3011 RMK AO2
KRKR 190615Z AUTO 00000KT 10SM CLR 10/09 A3012 RMK AO2
KRKR 190555Z AUTO 00000KT 10SM CLR 11/10 A3012 RMK AO2
KRKR 190535Z AUTO 00000KT 10SM CLR 10/10 A3011 RMK AO2
KRKR 190515Z AUTO 00000KT 10SM CLR 11/10 A3011 RMK AO2
KRKR 190455Z AUTO 00000KT 10SM CLR 11/10 A3011 RMK AO2
KRKR 190435Z AUTO 17003KT 10SM CLR 10/08 A3012 RMK AO2
KRKR 190415Z AUTO 00000KT 10SM CLR 11/09 A3012 RMK AO2
KRKR 190355Z AUTO 00000KT 10SM CLR 11/10 A3013 RMK AO2
KRKR 190335Z AUTO 00000KT 10SM CLR 12/10 A3013 RMK AO2
KRKR 190315Z AUTO 00000KT 10SM CLR 12/09 A3012 RMK AO2
KRKR 190255Z AUTO 00000KT 10SM CLR 13/08 A3012 RMK AO2
KRKR 190235Z AUTO 00000KT 10SM CLR 13/08 A3012 RMK AO2
KRKR 190215Z AUTO 00000KT 10SM CLR 13/08 A3012 RMK AO2
KRKR 190155Z AUTO 00000KT 10SM CLR 15/08 A3011 RMK AO2
KRKR 190135Z AUTO 00000KT 10SM CLR 15/09 A3012 RMK AO2
KRKR 190115Z AUTO 00000KT 10SM CLR 13/10 A3011 RMK AO2
KRKR 190055Z AUTO 00000KT 10SM CLR 15/10 A3011 RMK AO2
KRKR 190035Z AUTO 00000KT 10SM CLR 16/10 A3011 RMK AO2
KRKR 190015Z AUTO 00000KT 10SM CLR 17/10 A3010 RMK AO2
KRKR 182355Z AUTO 00000KT 10SM CLR 18/10 A3010 RMK AO2
KRKR 182335Z AUTO 00000KT 10SM CLR 21/07 A3010 RMK AO2
KRKR 182315Z AUTO 00000KT 10SM CLR 22/07 A3010 RMK AO2
KRKR 182255Z AUTO 20005KT 10SM CLR 24/07 A3009 RMK AO2
KRKR 182235Z AUTO 23004KT 10SM CLR 25/05 A3010 RMK AO2
KRKR 182215Z AUTO 20004KT 10SM CLR 25/05 A3009 RMK AO2
KRKR 182155Z AUTO 21006KT 10SM CLR 26/05 A3009 RMK AO2
KRKR 182135Z AUTO 19007KT 3SM HZ SCT002 26/05 A3009 RMK AO2
KRKR 182115Z AUTO 20006KT 4SM HZ SCT003 26/05 A3009 RMK AO2
KRKR 182055Z AUTO 17006KT 5SM HZ CLR 26/05 A3009 RMK AO2
KRKR 182035Z AUTO 19008KT 7SM CLR 25/03 A3010 RMK AO2
KRKR 182015Z AUTO 17006KT 10SM CLR 25/03 A3010 RMK AO2
KRKR 181955Z AUTO 17005KT 10SM CLR 25/03 A3012 RMK AO2
KRKR 181935Z AUTO 20008KT 10SM CLR 25/04 A3013 RMK AO2
KRKR 181915Z AUTO 17005KT 10SM CLR 25/03 A3013 RMK AO2
KRKR 181855Z AUTO 18007KT 10SM CLR 24/03 A3013 RMK AO2
KRKR 181835Z AUTO 16006KT 10SM CLR 24/03 A3014 RMK AO2
KRKR 181815Z AUTO 20006KT 10SM CLR 23/05 A3015 RMK AO2
KRKR 181755Z AUTO 17005KT 10SM CLR 23/05 A3016 RMK AO2
KRKR 181735Z AUTO 17005KT 10SM CLR 22/06 A3017 RMK AO2
KRKR 181715Z AUTO 15005KT 10SM CLR 21/06 A3018 RMK AO2
KRKR 181655Z AUTO 19006KT 10SM CLR 21/06 A3018 RMK AO2
KRKR 181635Z AUTO 00000KT 10SM CLR 20/06 A3019 RMK AO2
KRKR 181615Z AUTO 22003KT 10SM CLR 19/06 A3019 RMK AO2
KRKR 181555Z AUTO 00000KT 10SM CLR 17/07 A3019 RMK AO2
KRKR 181535Z AUTO 00000KT 10SM CLR 15/09 A3020 RMK AO2
KRKR 181515Z AUTO 00000KT 10SM CLR 14/09 A3020 RMK AO2
KRKR 181455Z AUTO 00000KT 10SM CLR 12/09 A3019 RMK AO2
KRKR 181435Z AUTO 00000KT 10SM CLR 11/09 A3019 RMK AO2
KRKR 181415Z AUTO 00000KT 10SM CLR 08/08 A3018 RMK AO2
KRKR 181355Z AUTO 00000KT 10SM CLR 07/07 A3018 RMK AO2
KRKR 181335Z AUTO 00000KT 10SM CLR 06/05 A3018 RMK AO2
KRKR 181315Z AUTO 00000KT 10SM CLR 05/04 A3017 RMK AO2
KRKR 181255Z AUTO 00000KT 10SM CLR 04/03 A3017 RMK AO2
KRKR 181235Z AUTO 00000KT 4SM BR SCT002 04/03 A3017 RMK AO2
KRKR 181215Z AUTO 00000KT 10SM CLR 04/03 A3017 RMK AO2
KRKR 181155Z AUTO 00000KT 10SM CLR 04/03 A3016 RMK AO2
KRKR 181135Z AUTO 00000KT 10SM CLR 03/02 A3017 RMK AO2
KRKR 181115Z AUTO 00000KT 2 1/2SM BR CLR 03/03 A3017 RMK AO2
KRKR 181055Z AUTO 00000KT 10SM SCT002 04/03 A3017 RMK AO2
KRKR 181035Z AUTO 00000KT 2 1/2SM BR OVC002 04/03 A3017 RMK AO2 VIS 1/2V5
KRKR 181015Z AUTO 00000KT M1/4SM FG OVC002 05/03 A3017 RMK AO2
KRKR 180955Z AUTO 00000KT M1/4SM FG OVC002 05/03 A3017 RMK AO2
KRKR 180935Z AUTO 00000KT M1/4SM FG OVC002 05/04 A3017 RMK AO2
KRKR 180915Z AUTO 00000KT 3SM BR OVC002 05/04 A3017 RMK AO2
KRKR 180855Z AUTO 00000KT 2SM BR OVC002 05/05 A3017 RMK AO2 VIS 1/2V5
KRKR 180835Z AUTO 00000KT 2 1/2SM BR BKN002 05/05 A3018 RMK AO2
KRKR 180815Z AUTO 00000KT 1/4SM FG OVC002 05/05 A3018 RMK AO2 VIS M1/4V5